Date,TemperatureHighF,TemperatureAvgF,TemperatureLowF,DewpointHighF,DewpointAvgF,DewpointLowF,HumidityHigh,HumidityAvg,HumidityLow,PressureMaxIn,PressureMinIn,WindSpeedMaxMPH,WindSpeedAvgMPH,GustSpeedMaxMPH,PrecipitationSumIn
2013-3-1,64,53,41,33,30,24,70,44,23,30.30,30.14,13,3,18,0.00
2013-3-2,56,49,42,34,27,21,68,45,27,30.37,30.24,24,6,29,0.00
2013-3-3,69,54,38,50,35,24,81,52,27,30.29,30.00,17,4,19,0.00
2013-3-4,77,66,55,62,57,49,87,74,52,30.01,29.78,27,10,32,0.00
2013-3-5,68,62,52,62,40,25,85,49,23,30.30,29.81,26,11,27,0.00
2013-3-6,70,55,44,42,26,18,67,36,16,30.42,30.22,17,4,21,0.00
2013-3-7,72,58,45,51,45,40,84,64,35,30.27,30.16,23,6,25,0.00
2013-3-8,73,62,55,61,56,50,91,82,63,30.20,30.06,23,7,23,0.00
2013-3-9,76,68,62,65,62,58,91,82,67,30.07,29.76,28,13,34,0.00
2013-3-10,68,63,54,64,53,37,91,72,44,30.06,29.72,22,10,24,0.02
2013-3-11,60,53,48,38,29,19,63,41,20,30.13,29.99,20,7,24,0.02
2013-3-12,77,58,43,44,34,27,70,46,18,30.24,30.07,14,2,20,0.01
2013-3-13,76,61,49,47,42,34,80,54,26,30.44,30.24,13,3,15,0.01
2013-3-14,78,62,49,53,47,42,90,63,30,30.41,30.27,23,6,23,0.00
2013-3-15,78,64,51,60,53,48,91,69,40,30.28,30.06,18,6,22,0.00
2013-3-16,79,67,56,62,58,53,91,75,48,30.06,29.84,26,8,26,0.00
2013-3-17,82,70,60,66,63,58,92,79,56,29.87,29.69,23,7,27,0.00
2013-3-18,91,77,66,68,64,59,91,69,38,29.88,29.70,16,4,17,0.00
2013-3-19,82,71,64,65,60,51,87,69,50,29.98,29.88,20,8,21,0.00
2013-3-20,76,65,56,63,50,35,89,62,25,30.17,29.93,21,6,23,0.01
2013-3-21,73,64,56,62,55,48,89,75,44,30.05,29.71,24,9,27,0.01
2013-3-22,82,73,66,70,67,62,91,81,63,29.74,29.65,18,4,19,0.01
2013-3-23,74,70,65,69,66,61,91,88,81,29.74,29.58,11,2,15,0.01
2013-3-24,68,57,49,65,41,29,90,58,33,30.14,29.63,32,10,32,0.01
2013-3-25,60,52,43,32,25,17,61,37,20,30.37,30.14,18,6,22,0.00
2013-3-26,63,53,43,26,23,20,45,31,19,30.48,30.30,15,4,16,0.00
2013-3-27,72,58,43,50,40,26,73,54,31,30.36,30.21,21,6,22,0.00
2013-3-28,73,64,56,59,56,49,88,74,59,30.25,30.17,23,6,23,0.00
2013-3-29,80,67,58,63,60,55,92,78,50,30.21,30.10,23,8,27,0.00
2013-3-30,81,70,64,65,62,60,91,77,51,30.14,29.95,17,6,21,0.00
2013-3-31,85,70,64,67,64,60,91,82,51,29.97,29.84,22,6,25,0.02